createdAt,value
2019-06-07T00:02:13.347Z,35.10
2019-06-07T00:04:51.043Z,32.63
2019-06-07T00:07:28.739Z,29.77
2019-06-07T00:10:07.070Z,31.27
2019-06-07T00:12:45.288Z,35.40
2019-06-07T00:15:28.626Z,32.28
2019-06-07T00:18:02.672Z,31.17
2019-06-07T00:20:40.415Z,33.10
2019-06-07T00:23:22.459Z,34.65
2019-06-07T00:25:58.163Z,31.97
2019-06-07T00:28:36.617Z,43.65
2019-06-07T00:31:17.252Z,36.40
2019-06-07T00:33:54.277Z,42.03
2019-06-07T00:36:32.467Z,37.67
2019-06-07T00:39:13.058Z,34.67
2019-06-07T00:41:49.235Z,36.55
2019-06-07T00:44:27.683Z,42.45
2019-06-07T00:47:05.959Z,40.75
2019-06-07T00:49:43.459Z,39.18
2019-06-07T00:53:11.604Z,42.43
2019-06-07T00:55:01.117Z,33.38
2019-06-07T00:57:38.370Z,32.98
2019-06-07T01:00:21.936Z,26.90
2019-06-07T01:02:56.368Z,30.90
2019-06-07T01:05:34.942Z,30.20
2019-06-07T01:08:14.933Z,32.23
2019-06-07T01:10:53.977Z,30.27
2019-06-07T01:13:30.456Z,26.42
2019-06-07T01:16:09.503Z,26.35
2019-06-07T01:18:51.186Z,30.92
2019-06-07T01:21:29.329Z,42.27
2019-06-07T01:24:12.042Z,41.85
2019-06-07T01:26:45.660Z,34.73
2019-06-07T01:29:25.015Z,36.10
2019-06-07T01:32:04.005Z,55.80
2019-06-07T01:34:41.374Z,54.33
2019-06-07T01:37:22.584Z,52.33
2019-06-07T01:39:58.866Z,35.28
2019-06-07T01:42:36.870Z,39.73
2019-06-07T01:45:15.001Z,43.28
2019-06-07T01:47:53.023Z,45.95
2019-06-07T01:50:30.716Z,48.87
2019-06-07T01:53:09.368Z,70.17
2019-06-07T01:55:47.432Z,32.30
2019-06-07T01:58:27.849Z,30.17
2019-06-07T02:01:04.094Z,34.70
2019-06-07T02:03:42.316Z,56.58
2019-06-07T02:06:20.985Z,74.42
2019-06-07T02:08:59.466Z,61.48
2019-06-07T02:11:37.369Z,68.22
2019-06-07T02:14:14.675Z,55.73
2019-06-07T02:16:52.028Z,66.77
2019-06-07T02:19:31.709Z,64.75
2019-06-07T02:22:09.834Z,69.85
2019-06-07T02:25:33.879Z,63.42
2019-06-07T02:27:27.508Z,39.10
2019-06-07T02:32:44.801Z,44.98
2019-06-07T02:35:26.375Z,55.98
2019-06-07T02:38:01.959Z,57.75
2019-06-07T02:40:40.029Z,57.13
2019-06-07T02:43:17.734Z,47.93
2019-06-07T02:45:54.750Z,55.75
2019-06-07T02:48:38.592Z,30.97
2019-06-07T02:51:11.771Z,30.27
2019-06-07T02:53:49.441Z,38.58
2019-06-07T02:56:43.034Z,46.00
2019-06-07T02:59:06.608Z,49.85
2019-06-07T03:01:45.126Z,40.55
2019-06-07T03:04:22.848Z,36.73
2019-06-07T03:07:02.471Z,35.52
2019-06-07T03:09:40.188Z,32.53
2019-06-07T03:12:18.071Z,34.08
2019-06-07T03:14:55.885Z,34.90
2019-06-07T03:17:55.283Z,30.92
2019-06-07T03:20:35.101Z,26.57
2019-06-07T03:23:13.446Z,25.75
2019-06-07T03:25:51.373Z,33.90
2019-06-07T03:28:34.187Z,38.73
2019-06-07T03:31:10.042Z,23.95
2019-06-07T03:33:48.304Z,26.02
2019-06-07T03:36:26.165Z,23.32
2019-06-07T03:39:06.959Z,31.02
2019-06-07T03:42:04.520Z,33.58
2019-06-07T03:44:24.330Z,27.07
2019-06-07T03:47:02.176Z,25.37
2019-06-07T03:49:42.503Z,22.87
2019-06-07T03:52:18.763Z,27.85
2019-06-07T03:54:57.222Z,32.23
2019-06-07T03:58:23.838Z,33.18
2019-06-07T04:00:13.634Z,32.10
2019-06-07T04:02:51.946Z,32.35
2019-06-07T04:05:36.343Z,36.55
2019-06-07T04:08:09.744Z,35.00
2019-06-07T04:10:59.865Z,30.97
2019-06-07T04:13:30.492Z,37.23
2019-06-07T04:16:09.477Z,35.92
2019-06-07T04:18:47.480Z,56.23
2019-06-07T04:21:25.293Z,57.65
2019-06-07T04:24:03.725Z,58.10
2019-06-07T04:26:43.746Z,46.42
2019-06-07T04:29:33.194Z,42.45
2019-06-07T04:32:00.866Z,44.25
2019-06-07T04:34:42.920Z,35.08
2019-06-07T04:37:18.891Z,37.20
2019-06-07T04:39:56.526Z,41.75
2019-06-07T04:42:39.129Z,40.90
2019-06-07T04:45:33.008Z,35.33
2019-06-07T04:47:55.298Z,34.78
2019-06-07T04:50:36.128Z,35.43
2019-06-07T04:53:12.878Z,31.23
2019-06-07T04:55:50.464Z,32.80
2019-06-07T04:58:30.434Z,30.02
2019-06-07T05:01:26.272Z,37.38
2019-06-07T05:03:47.822Z,31.82
2019-06-07T05:06:25.648Z,27.60
2019-06-07T05:09:03.285Z,26.20
2019-06-07T05:11:44.879Z,20.43
2019-06-07T05:14:21.513Z,18.35
2019-06-07T05:16:59.449Z,20.72
2019-06-07T05:19:39.123Z,17.42
2019-06-07T05:22:16.695Z,14.75
2019-06-07T05:24:55.266Z,13.28
2019-06-07T05:27:34.330Z,12.55
2019-06-07T05:30:57.837Z,11.55
2019-06-07T05:32:52.278Z,11.22
2019-06-07T05:35:30.639Z,11.10
2019-06-07T05:38:08.319Z,12.28
2019-06-07T05:40:48.789Z,11.95
2019-06-07T05:43:34.342Z,12.13
2019-06-07T05:46:12.102Z,14.78
2019-06-07T05:48:49.496Z,9.63
2019-06-07T05:51:27.417Z,12.68
2019-06-07T05:54:05.316Z,9.45
2019-06-07T05:56:45.215Z,8.93
2019-06-07T05:59:22.690Z,12.58
2019-06-07T06:02:13.946Z,8.53
2019-06-07T06:04:42.637Z,7.67
2019-06-07T06:07:17.684Z,7.10
2019-06-07T06:09:55.364Z,12.03
2019-06-07T06:12:37.324Z,9.60
2019-06-07T06:15:13.442Z,18.23
2019-06-07T06:17:53.848Z,16.80
2019-06-07T06:20:34.840Z,19.87
2019-06-07T06:23:12.098Z,13.08
2019-06-07T06:25:55.818Z,19.50
2019-06-07T06:28:28.947Z,31.35
2019-06-07T06:31:06.708Z,9.53
2019-06-07T06:33:45.292Z,8.15
2019-06-07T06:36:23.296Z,16.25
2019-06-07T06:39:00.798Z,16.35
2019-06-07T06:41:49.410Z,15.78
2019-06-07T06:44:20.481Z,26.40
2019-06-07T06:46:58.687Z,14.23
2019-06-07T06:49:36.799Z,24.27
2019-06-07T06:52:14.319Z,14.68
2019-06-07T06:55:00.128Z,10.90
2019-06-07T06:57:31.650Z,31.42
2019-06-07T07:00:10.797Z,21.12
2019-06-07T07:03:39.221Z,11.30
2019-06-07T07:05:27.786Z,9.08
2019-06-07T07:08:05.386Z,13.15
2019-06-07T07:10:45.997Z,21.02
2019-06-07T07:13:23.902Z,11.38
2019-06-07T07:16:01.909Z,20.20
2019-06-07T07:18:39.597Z,14.53
2019-06-07T07:21:18.224Z,21.15
2019-06-07T07:24:19.607Z,19.57
2019-06-07T07:26:34.912Z,14.93
2019-06-07T07:29:12.499Z,15.85
2019-06-07T07:31:52.360Z,16.80
2019-06-07T07:34:36.185Z,9.83
2019-06-07T07:37:08.195Z,11.65
2019-06-07T07:39:48.594Z,9.23
2019-06-07T07:42:24.454Z,8.50
2019-06-07T07:45:01.852Z,7.50
2019-06-07T07:47:58.244Z,6.37
2019-06-07T07:50:20.871Z,6.40
2019-06-07T07:53:00.531Z,6.37
2019-06-07T07:59:42.224Z,7.78
2019-06-07T08:02:15.639Z,10.53
2019-06-07T08:05:20.580Z,9.98
2019-06-07T08:07:32.814Z,6.33
2019-06-07T08:10:11.237Z,5.53
2019-06-07T08:13:07.619Z,6.95
2019-06-07T08:15:27.946Z,6.90
2019-06-07T08:18:05.349Z,3.98
2019-06-07T08:21:04.633Z,5.95
2019-06-07T08:23:22.198Z,6.47
2019-06-07T08:26:01.125Z,6.25
2019-06-07T08:28:39.245Z,4.87
2019-06-07T08:31:17.233Z,6.97
2019-06-07T08:33:58.444Z,4.85
2019-06-07T08:36:42.244Z,3.27
2019-06-07T08:39:15.162Z,3.90
2019-06-07T08:42:08.886Z,3.40
2019-06-07T08:44:32.193Z,3.50
2019-06-07T08:47:20.170Z,8.08
2019-06-07T08:49:48.525Z,5.65
2019-06-07T08:52:26.377Z,3.60
2019-06-07T08:55:05.276Z,6.60
2019-06-07T08:57:42.874Z,11.73
2019-06-07T09:03:05.128Z,7.28
2019-06-07T09:05:41.128Z,11.80
2019-06-07T09:08:30.027Z,10.10
2019-06-07T09:11:02.341Z,10.35
2019-06-07T09:13:39.261Z,9.00
2019-06-07T09:16:16.601Z,9.30
2019-06-07T09:18:56.101Z,6.42
2019-06-07T09:21:33.382Z,7.25
2019-06-07T09:24:12.167Z,9.78
2019-06-07T09:26:50.779Z,11.12
2019-06-07T09:29:29.095Z,8.68
2019-06-07T09:32:11.959Z,7.00
2019-06-07T09:34:47.701Z,8.15
2019-06-07T09:40:20.453Z,10.35
2019-06-07T09:42:43.334Z,10.63
2019-06-07T09:45:21.751Z,10.30
2019-06-07T09:48:02.297Z,16.52
2019-06-07T09:50:40.217Z,14.85
2019-06-07T09:53:22.689Z,14.85
2019-06-07T09:56:02.838Z,17.07
2019-06-07T09:58:54.047Z,10.30
2019-06-07T10:01:17.223Z,7.47
2019-06-07T10:03:54.672Z,18.15
2019-06-07T10:06:33.690Z,15.15
2019-06-07T10:11:53.808Z,14.40
2019-06-07T10:14:31.317Z,11.55
2019-06-07T10:17:09.482Z,15.00
2019-06-07T10:19:46.905Z,14.13
2019-06-07T10:22:24.981Z,13.85
2019-06-07T10:25:04.257Z,11.53
2019-06-07T10:27:41.762Z,12.45
2019-06-07T10:30:18.976Z,14.80
2019-06-07T10:32:56.490Z,14.70
2019-06-07T10:35:33.799Z,18.95
2019-06-07T10:38:12.226Z,14.70
2019-06-07T10:40:51.396Z,21.68
2019-06-07T10:43:29.902Z,18.10
2019-06-07T10:46:07.677Z,18.73
2019-06-07T10:48:46.421Z,21.20
2019-06-07T10:51:23.634Z,16.27
2019-06-07T10:54:10.805Z,18.65
2019-06-07T10:56:40.178Z,14.78
2019-06-07T10:59:18.855Z,18.35
2019-06-07T11:01:57.349Z,16.17
2019-06-07T11:04:34.835Z,17.50
2019-06-07T11:07:12.122Z,16.77
2019-06-07T11:10:05.716Z,18.32
2019-06-07T11:12:31.592Z,18.67
2019-06-07T11:15:11.022Z,23.32
2019-06-07T11:17:48.874Z,23.42
2019-06-07T11:20:27.027Z,21.68
2019-06-07T11:23:04.443Z,36.15
2019-06-07T11:25:42.298Z,22.90
2019-06-07T11:28:19.779Z,21.05
2019-06-07T11:30:58.086Z,36.45
2019-06-07T11:33:35.410Z,25.08
2019-06-07T11:36:12.871Z,37.00
2019-06-07T11:38:50.513Z,30.27
2019-06-07T11:41:28.508Z,32.17
2019-06-07T11:44:06.814Z,33.90
2019-06-07T11:46:44.480Z,26.45
2019-06-07T11:49:22.170Z,32.45
2019-06-07T11:52:01.054Z,37.83
2019-06-07T11:54:38.985Z,33.42
2019-06-07T11:57:17.323Z,35.17
2019-06-07T11:59:55.430Z,36.13
2019-06-07T12:02:34.007Z,35.08
2019-06-07T12:05:15.297Z,27.45
2019-06-07T12:07:51.483Z,34.95
2019-06-07T12:10:41.830Z,23.45
2019-06-07T12:13:10.386Z,25.62
2019-06-07T12:15:50.777Z,21.33
2019-06-07T12:18:28.807Z,23.15
2019-06-07T12:21:06.178Z,22.80
2019-06-07T12:23:44.356Z,23.38
2019-06-07T12:26:22.601Z,25.15
2019-06-07T12:29:00.166Z,26.25
2019-06-07T12:31:37.778Z,32.10
2019-06-07T12:34:15.607Z,23.57
2019-06-07T12:36:52.777Z,22.52
2019-06-07T12:39:30.970Z,24.75
2019-06-07T12:42:08.474Z,24.98
2019-06-07T12:44:46.514Z,29.10
2019-06-07T12:47:25.237Z,32.45
2019-06-07T12:50:10.130Z,29.85
2019-06-07T12:52:47.850Z,28.95
2019-06-07T12:55:26.645Z,23.67
2019-06-07T12:58:04.329Z,22.48
2019-06-07T13:00:42.117Z,21.15
2019-06-07T13:03:20.968Z,19.48
2019-06-07T13:05:59.669Z,16.42
2019-06-07T13:08:37.472Z,20.00
2019-06-07T13:11:21.273Z,18.45
2019-06-07T13:13:53.359Z,19.67
2019-06-07T13:16:31.185Z,26.12
2019-06-07T13:19:09.235Z,20.37
2019-06-07T13:21:47.303Z,21.00
2019-06-07T13:24:25.260Z,15.70
2019-06-07T13:27:03.343Z,40.80
2019-06-07T13:29:40.643Z,19.85
2019-06-07T13:32:17.878Z,20.62
2019-06-07T13:34:55.389Z,21.15
2019-06-07T13:37:33.064Z,20.97
2019-06-07T13:40:11.516Z,19.45
2019-06-07T13:42:51.182Z,18.40
2019-06-07T13:45:28.409Z,18.15
2019-06-07T13:48:07.068Z,33.23
2019-06-07T13:50:45.928Z,23.77
2019-06-07T13:53:24.930Z,21.30
2019-06-07T13:56:02.784Z,29.50
2019-06-07T13:58:40.922Z,18.92
2019-06-07T14:01:18.594Z,16.50
2019-06-07T14:03:56.529Z,18.02
2019-06-07T14:06:34.023Z,23.45
2019-06-07T14:09:12.733Z,16.62
2019-06-07T14:11:51.158Z,17.65
2019-06-07T14:14:30.907Z,20.45
2019-06-07T14:17:09.506Z,18.42
2019-06-07T14:19:47.374Z,17.45
2019-06-07T14:22:27.009Z,23.60
2019-06-07T14:25:04.963Z,20.10
2019-06-07T14:27:42.397Z,22.98
2019-06-07T14:30:21.829Z,26.05
2019-06-07T14:32:59.023Z,26.27
2019-06-07T14:35:36.867Z,22.75
2019-06-07T14:38:14.070Z,18.70
2019-06-07T14:40:52.032Z,22.60
2019-06-07T14:43:29.713Z,26.17
2019-06-07T14:46:07.739Z,19.75
2019-06-07T14:48:44.325Z,19.55
2019-06-07T14:51:22.383Z,18.65
2019-06-07T14:54:00.802Z,19.75
2019-06-07T14:56:38.598Z,19.73
2019-06-07T14:59:15.789Z,23.52
2019-06-07T15:01:54.445Z,19.37
2019-06-07T15:04:32.849Z,22.35
2019-06-07T15:07:12.615Z,20.40
2019-06-07T15:09:49.996Z,17.98
2019-06-07T15:12:29.233Z,96.02
2019-06-07T15:15:07.154Z,51.80
2019-06-07T15:17:45.033Z,19.37
2019-06-07T15:20:22.663Z,19.60
2019-06-07T15:23:00.598Z,14.63
2019-06-07T15:25:39.763Z,19.82
2019-06-07T15:28:18.317Z,19.35
2019-06-07T15:30:55.363Z,13.18
2019-06-07T15:33:34.335Z,20.08
2019-06-07T15:36:11.477Z,20.70
2019-06-07T15:38:48.904Z,20.25
2019-06-07T15:41:26.041Z,20.60
2019-06-07T15:44:04.370Z,17.17
2019-06-07T15:46:42.354Z,16.75
2019-06-07T15:49:19.966Z,22.85
2019-06-07T15:51:57.302Z,19.90
2019-06-07T15:54:36.459Z,22.05
2019-06-07T15:57:16.405Z,24.70
2019-06-07T15:59:54.442Z,23.15
2019-06-07T16:02:31.460Z,18.32
2019-06-07T16:05:11.304Z,19.35
2019-06-07T16:07:48.794Z,23.02
2019-06-07T16:10:26.219Z,20.75
2019-06-07T16:13:03.768Z,18.50
2019-06-07T16:15:41.549Z,17.73
2019-06-07T16:18:19.389Z,15.95
2019-06-07T16:20:57.290Z,20.15
2019-06-07T16:23:35.729Z,18.37
2019-06-07T16:26:14.536Z,14.73
2019-06-07T16:28:53.219Z,17.85
2019-06-07T16:31:31.103Z,16.48
2019-06-07T16:34:08.683Z,19.02
2019-06-07T16:36:48.807Z,16.17
2019-06-07T16:39:26.492Z,17.42
2019-06-07T16:42:03.818Z,16.77
2019-06-07T16:44:42.527Z,17.92
2019-06-07T16:47:20.205Z,19.45
2019-06-07T16:49:57.889Z,21.97
2019-06-07T16:52:35.555Z,19.75
2019-06-07T16:55:13.305Z,16.07
2019-06-07T16:57:51.388Z,14.38
2019-06-07T17:00:30.082Z,19.17
2019-06-07T17:03:08.556Z,15.15
2019-06-07T17:05:48.909Z,18.27
2019-06-07T17:08:25.958Z,18.50
2019-06-07T17:11:03.694Z,19.92
2019-06-07T17:13:42.331Z,18.25
2019-06-07T17:16:19.933Z,17.00
2019-06-07T17:18:58.041Z,13.18
2019-06-07T17:21:36.427Z,17.60
2019-06-07T17:24:13.761Z,16.57
2019-06-07T17:26:51.233Z,14.80
2019-06-07T17:29:29.476Z,20.70
2019-06-07T17:32:08.673Z,22.25
2019-06-07T17:34:46.301Z,16.20
2019-06-07T17:37:23.680Z,15.55
2019-06-07T17:40:01.415Z,14.60
2019-06-07T17:42:40.715Z,16.62
2019-06-07T17:45:18.449Z,14.53
2019-06-07T17:47:56.126Z,12.15
2019-06-07T17:50:34.269Z,18.27
2019-06-07T17:53:11.847Z,18.07
2019-06-07T17:55:50.373Z,14.98
2019-06-07T17:58:28.560Z,17.50
2019-06-07T18:01:06.713Z,18.35
2019-06-07T18:03:46.704Z,14.25
2019-06-07T18:06:25.818Z,15.05
2019-06-07T18:09:04.697Z,22.42
2019-06-07T18:11:43.918Z,20.20
2019-06-07T18:14:21.482Z,18.62
2019-06-07T18:16:58.823Z,24.05
2019-06-07T18:19:36.206Z,21.17
2019-06-07T18:22:14.910Z,16.40
2019-06-07T18:24:52.797Z,28.00
2019-06-07T18:27:29.982Z,52.43
2019-06-07T18:30:11.734Z,12.75
2019-06-07T18:32:48.710Z,7.20
2019-06-07T18:35:26.967Z,8.38
2019-06-07T18:38:04.575Z,6.72
2019-06-07T18:40:42.649Z,6.03
2019-06-07T18:43:20.993Z,5.55
2019-06-07T18:45:58.400Z,4.95
2019-06-07T18:48:36.317Z,5.37
2019-06-07T18:51:14.202Z,6.10
2019-06-07T18:53:53.707Z,4.95
2019-06-07T18:56:31.124Z,8.08
2019-06-07T18:59:08.505Z,8.05
2019-06-07T19:01:47.244Z,7.10
2019-06-07T19:04:26.396Z,14.23
2019-06-07T19:07:08.773Z,10.82
2019-06-07T19:09:48.534Z,12.50
2019-06-07T19:12:26.292Z,11.50
2019-06-07T19:15:05.168Z,13.18
2019-06-07T19:17:42.569Z,8.60
2019-06-07T19:20:20.197Z,8.63
2019-06-07T19:22:58.427Z,10.85
2019-06-07T19:25:36.519Z,9.08
2019-06-07T19:28:13.527Z,11.97
2019-06-07T19:30:51.185Z,11.73
2019-06-07T19:33:28.757Z,14.93
2019-06-07T19:36:06.264Z,10.98
2019-06-07T19:38:44.869Z,12.23
2019-06-07T19:41:22.597Z,15.05
2019-06-07T19:44:00.415Z,11.48
2019-06-07T19:46:38.629Z,10.00
2019-06-07T19:49:16.227Z,20.57
2019-06-07T19:51:54.899Z,13.35
2019-06-07T19:54:32.274Z,12.65
2019-06-07T19:57:11.280Z,8.98
2019-06-07T19:59:48.303Z,10.43
2019-06-07T20:02:26.048Z,10.28
2019-06-07T20:05:06.538Z,6.72
2019-06-07T20:07:43.835Z,9.88
2019-06-07T20:10:22.529Z,6.45
2019-06-07T20:13:00.811Z,6.95
2019-06-07T20:15:38.150Z,9.93
2019-06-07T20:18:16.219Z,8.40
2019-06-07T20:20:53.769Z,6.55
2019-06-07T20:23:31.543Z,13.08
2019-06-07T20:26:08.951Z,7.40
2019-06-07T20:28:46.800Z,16.20
2019-06-07T20:31:24.318Z,12.25
2019-06-07T20:34:04.214Z,10.30
2019-06-07T20:36:41.232Z,10.53
2019-06-07T20:39:19.003Z,9.48
2019-06-07T20:41:57.763Z,6.78
2019-06-07T20:44:36.152Z,12.13
2019-06-07T20:47:13.576Z,11.88
2019-06-07T20:49:51.442Z,8.13
2019-06-07T20:52:29.959Z,10.20
2019-06-07T20:55:09.116Z,8.40
2019-06-07T20:57:46.580Z,12.82
2019-06-07T21:00:25.062Z,8.10
2019-06-07T21:03:03.235Z,9.70
2019-06-07T21:05:41.234Z,9.58
2019-06-07T21:08:19.701Z,12.98
2019-06-07T21:10:57.698Z,12.73
2019-06-07T21:13:35.855Z,12.98
2019-06-07T21:16:13.608Z,13.68
2019-06-07T21:18:51.294Z,18.55
2019-06-07T21:21:29.305Z,15.58
2019-06-07T21:24:06.829Z,12.55
2019-06-07T21:26:44.727Z,9.15
2019-06-07T21:29:22.010Z,13.83
2019-06-07T21:32:01.282Z,12.03
2019-06-07T21:34:38.834Z,10.88
2019-06-07T21:37:16.623Z,11.00
2019-06-07T21:39:54.284Z,10.15
2019-06-07T21:42:32.105Z,13.20
2019-06-07T21:45:11.856Z,10.55
2019-06-07T21:47:49.677Z,9.33
2019-06-07T21:50:26.362Z,7.97
2019-06-07T21:53:04.617Z,6.50
2019-06-07T21:55:42.777Z,10.58
2019-06-07T21:58:20.106Z,7.78
2019-06-07T22:01:23.177Z,14.68
2019-06-07T22:04:01.116Z,11.73
2019-06-07T22:06:38.932Z,13.62
2019-06-07T22:09:17.158Z,15.13
2019-06-07T22:11:55.451Z,20.70
2019-06-07T22:14:34.011Z,16.45
2019-06-07T22:17:12.459Z,18.32
2019-06-07T22:19:50.214Z,18.60
2019-06-07T22:22:28.047Z,20.60
2019-06-07T22:25:06.927Z,18.35
2019-06-07T22:27:44.327Z,11.57
2019-06-07T22:30:21.447Z,16.57
2019-06-07T22:32:58.858Z,15.50
2019-06-07T22:35:38.002Z,12.20
2019-06-07T22:38:14.951Z,14.68
2019-06-07T22:40:52.983Z,13.15
2019-06-07T22:43:30.463Z,12.50
2019-06-07T22:46:08.690Z,17.92
2019-06-07T22:48:47.479Z,16.70
2019-06-07T22:51:25.524Z,19.67
2019-06-07T22:54:02.506Z,15.43
2019-06-07T22:56:54.446Z,14.53
2019-06-07T22:59:32.106Z,14.65
2019-06-07T23:02:10.417Z,13.58
2019-06-07T23:04:48.155Z,12.63
2019-06-07T23:07:27.188Z,10.53
2019-06-07T23:10:05.518Z,9.63
2019-06-07T23:12:43.935Z,13.72
2019-06-07T23:15:21.485Z,12.85
2019-06-07T23:17:59.346Z,11.00
2019-06-07T23:20:38.910Z,8.58
2019-06-07T23:23:17.326Z,7.22
2019-06-07T23:25:54.493Z,11.70
2019-06-07T23:28:32.331Z,10.00
2019-06-07T23:31:10.408Z,10.00
2019-06-07T23:33:47.903Z,9.35
2019-06-07T23:36:25.277Z,12.30
2019-06-07T23:39:03.650Z,12.50
2019-06-07T23:41:40.503Z,14.00
2019-06-07T23:44:19.319Z,12.55
2019-06-07T23:47:10.393Z,12.43
2019-06-07T23:49:36.869Z,14.50
2019-06-07T23:52:15.748Z,15.53
2019-06-07T23:54:53.433Z,17.37
2019-06-07T23:57:30.902Z,16.30
